createdAt,value
2017-07-15T00:01:33.907Z,56.00
2017-07-15T00:04:02.185Z,56.10
2017-07-15T00:06:31.216Z,56.30
2017-07-15T00:08:59.485Z,56.30
2017-07-15T00:11:27.748Z,56.30
2017-07-15T00:13:55.986Z,56.20
2017-07-15T00:16:24.364Z,56.20
2017-07-15T00:18:52.577Z,56.10
2017-07-15T00:21:20.840Z,56.30
2017-07-15T00:23:49.108Z,56.10
2017-07-15T00:26:17.369Z,56.00
2017-07-15T00:28:45.605Z,55.90
2017-07-15T00:31:13.849Z,56.50
2017-07-15T00:33:42.089Z,56.10
2017-07-15T00:36:10.355Z,56.00
2017-07-15T00:38:38.592Z,56.10
2017-07-15T00:41:06.853Z,55.90
2017-07-15T00:43:35.090Z,55.30
2017-07-15T00:46:03.333Z,55.40
2017-07-15T00:48:31.605Z,55.30
2017-07-15T00:50:59.854Z,55.30
2017-07-15T00:53:28.261Z,55.40
2017-07-15T00:55:56.535Z,55.40
2017-07-15T00:58:24.855Z,55.30
2017-07-15T01:00:53.117Z,55.40
2017-07-15T01:03:21.386Z,55.10
2017-07-15T01:05:49.642Z,55.10
2017-07-15T01:08:17.893Z,55.30
2017-07-15T01:10:46.135Z,55.50
2017-07-15T01:13:15.148Z,55.70
2017-07-15T01:15:43.386Z,55.70
2017-07-15T01:18:11.626Z,55.90
2017-07-15T01:20:39.890Z,56.00
2017-07-15T01:23:08.142Z,56.10
2017-07-15T01:25:36.387Z,56.20
2017-07-15T01:28:05.433Z,56.70
2017-07-15T01:30:33.661Z,56.40
2017-07-15T01:33:02.701Z,56.60
2017-07-15T01:35:30.938Z,56.50
2017-07-15T01:37:59.972Z,56.50
2017-07-15T01:40:28.240Z,56.50
2017-07-15T01:42:56.489Z,56.40
2017-07-15T01:45:24.753Z,56.40
2017-07-15T01:47:52.990Z,56.40
2017-07-15T01:50:21.229Z,56.50
2017-07-15T01:52:49.490Z,56.40
2017-07-15T01:55:17.739Z,56.50
2017-07-15T01:57:45.984Z,56.50
2017-07-15T02:00:14.254Z,56.50
2017-07-15T02:02:42.498Z,56.70
2017-07-15T02:05:10.772Z,57.00
2017-07-15T02:07:39.021Z,56.40
2017-07-15T02:10:08.091Z,56.80
2017-07-15T02:12:36.328Z,56.60
2017-07-15T02:15:04.582Z,56.70
2017-07-15T02:17:33.083Z,56.70
2017-07-15T02:20:01.338Z,56.90
2017-07-15T02:22:29.569Z,56.90
2017-07-15T02:24:57.833Z,57.20
2017-07-15T02:27:26.111Z,57.30
2017-07-15T02:29:54.365Z,57.40
2017-07-15T02:32:22.609Z,57.70
2017-07-15T02:34:50.867Z,57.80
2017-07-15T02:37:19.883Z,58.30
2017-07-15T02:39:48.230Z,57.90
2017-07-15T02:42:16.466Z,58.10
2017-07-15T02:44:44.765Z,58.40
2017-07-15T02:47:13.057Z,59.00
2017-07-15T02:49:41.303Z,59.10
2017-07-15T02:52:09.543Z,59.40
2017-07-15T02:54:37.803Z,59.70
2017-07-15T02:57:06.806Z,59.70
2017-07-15T02:59:35.229Z,59.70
2017-07-15T03:02:03.465Z,59.60
2017-07-15T03:04:31.721Z,59.70
2017-07-15T03:07:00.835Z,59.40
2017-07-15T03:09:29.174Z,60.10
2017-07-15T03:11:57.411Z,59.40
2017-07-15T03:14:25.667Z,59.30
2017-07-15T03:16:53.921Z,59.60
2017-07-15T03:19:22.953Z,59.60
2017-07-15T03:21:51.222Z,59.60
2017-07-15T03:24:19.454Z,58.60
2017-07-15T03:27:00.399Z,59.30
2017-07-15T03:29:28.642Z,58.90
2017-07-15T03:31:56.898Z,58.60
2017-07-15T03:34:25.135Z,58.80
2017-07-15T03:36:53.553Z,59.50
2017-07-15T03:39:21.811Z,59.60
2017-07-15T03:41:50.854Z,59.30
2017-07-15T03:44:19.104Z,59.30
2017-07-15T03:46:47.386Z,59.30
2017-07-15T03:49:15.627Z,59.40
2017-07-15T03:51:44.652Z,59.50
2017-07-15T03:54:12.993Z,59.50
2017-07-15T03:56:41.218Z,59.70
2017-07-15T03:59:09.462Z,60.90
2017-07-15T04:01:37.718Z,60.10
2017-07-15T04:04:06.004Z,60.10
2017-07-15T04:06:35.041Z,60.80
2017-07-15T04:09:03.303Z,60.80
2017-07-15T04:11:31.592Z,60.80
2017-07-15T04:13:59.868Z,61.30
2017-07-15T04:16:28.115Z,61.30
2017-07-15T04:18:56.354Z,61.20
2017-07-15T04:21:24.634Z,61.60
2017-07-15T04:23:52.910Z,61.80
2017-07-15T04:26:21.130Z,61.40
2017-07-15T04:28:49.384Z,61.40
2017-07-15T04:31:17.695Z,61.00
2017-07-15T04:33:45.963Z,61.70
2017-07-15T04:36:14.203Z,61.80
2017-07-15T04:38:42.475Z,61.90
2017-07-15T04:41:11.506Z,61.10
2017-07-15T04:43:39.763Z,61.10
2017-07-15T04:46:08.410Z,60.50
2017-07-15T04:48:36.639Z,59.90
2017-07-15T04:51:04.889Z,58.30
2017-07-15T04:53:33.140Z,58.40
2017-07-15T04:56:01.374Z,59.30
2017-07-15T04:58:29.634Z,59.00
2017-07-15T05:00:57.870Z,58.40
2017-07-15T05:03:26.903Z,59.00
2017-07-15T05:05:55.142Z,59.00
2017-07-15T05:08:24.177Z,58.70
2017-07-15T05:10:52.421Z,58.60
2017-07-15T05:13:20.672Z,58.30
2017-07-15T05:15:48.912Z,58.10
2017-07-15T05:18:17.151Z,57.80
2017-07-15T05:20:45.398Z,58.30
2017-07-15T05:23:13.712Z,58.20
2017-07-15T05:25:41.955Z,57.70
2017-07-15T05:28:10.976Z,56.90
2017-07-15T05:30:39.214Z,56.90
2017-07-15T05:33:07.446Z,55.30
2017-07-15T05:35:35.768Z,54.90
2017-07-15T05:38:04.000Z,54.40
2017-07-15T05:40:32.250Z,53.30
2017-07-15T05:43:00.489Z,52.50
2017-07-15T05:45:29.542Z,52.90
2017-07-15T05:47:57.809Z,52.90
2017-07-15T05:50:26.065Z,53.60
2017-07-15T05:52:54.367Z,53.30
2017-07-15T05:55:22.618Z,53.20
2017-07-15T05:57:50.857Z,54.20
2017-07-15T06:00:19.913Z,54.70
2017-07-15T06:02:48.185Z,54.40
2017-07-15T06:05:16.463Z,55.10
2017-07-15T06:07:44.695Z,56.00
2017-07-15T06:10:13.720Z,56.40
2017-07-15T06:12:41.949Z,56.40
2017-07-15T06:15:11.037Z,55.90
2017-07-15T06:17:39.278Z,55.90
2017-07-15T06:20:07.649Z,55.90
2017-07-15T06:22:35.904Z,56.30
2017-07-15T06:25:04.918Z,56.00
2017-07-15T06:27:33.164Z,56.00
2017-07-15T06:30:01.473Z,54.70
2017-07-15T06:32:29.754Z,54.60
2017-07-15T06:34:58.118Z,54.90
2017-07-15T06:37:26.370Z,55.20
2017-07-15T06:39:54.639Z,55.50
2017-07-15T06:42:23.663Z,54.30
2017-07-15T06:44:51.905Z,54.30
2017-07-15T06:47:20.230Z,54.10
2017-07-15T06:49:48.465Z,53.70
2017-07-15T06:52:16.774Z,53.20
2017-07-15T06:54:45.136Z,53.30
2017-07-15T06:57:13.425Z,53.00
2017-07-15T06:59:41.670Z,52.80
2017-07-15T07:02:09.993Z,52.70
2017-07-15T07:04:38.237Z,52.30
2017-07-15T07:07:06.509Z,51.90
2017-07-15T07:09:34.737Z,51.90
2017-07-15T07:12:03.022Z,51.70
2017-07-15T07:14:32.020Z,50.70
2017-07-15T07:17:01.065Z,49.70
2017-07-15T07:19:29.376Z,49.70
2017-07-15T07:21:57.618Z,49.60
2017-07-15T07:24:25.920Z,49.30
2017-07-15T07:26:54.258Z,49.70
2017-07-15T07:29:22.546Z,49.20
2017-07-15T07:31:50.782Z,48.20
2017-07-15T07:34:19.066Z,48.40
2017-07-15T07:36:47.324Z,48.00
2017-07-15T07:39:16.408Z,48.50
2017-07-15T07:41:44.677Z,48.50
2017-07-15T07:44:13.682Z,48.90
2017-07-15T07:46:42.774Z,48.90
2017-07-15T07:49:11.828Z,49.50
2017-07-15T07:51:40.083Z,49.50
2017-07-15T07:54:08.377Z,49.70
2017-07-15T07:56:36.626Z,49.80
2017-07-15T07:59:04.957Z,50.60
2017-07-15T08:01:33.244Z,50.90
2017-07-15T08:04:01.469Z,50.80
2017-07-15T08:06:29.721Z,51.20
2017-07-15T08:08:58.011Z,51.10
2017-07-15T08:11:26.349Z,50.70
2017-07-15T08:13:55.738Z,49.70
2017-07-15T08:16:24.016Z,50.20
2017-07-15T08:18:52.280Z,49.50
2017-07-15T08:21:20.544Z,49.10
2017-07-15T08:23:48.804Z,49.20
2017-07-15T08:26:17.046Z,49.20
2017-07-15T08:28:45.307Z,49.50
2017-07-15T08:31:14.340Z,49.90
2017-07-15T08:33:42.623Z,49.90
2017-07-15T08:36:11.190Z,50.40
2017-07-15T08:38:40.508Z,50.10
2017-07-15T08:41:08.787Z,50.10
2017-07-15T08:43:37.066Z,50.60
2017-07-15T08:46:05.306Z,50.50
2017-07-15T08:48:33.592Z,51.40
2017-07-15T08:51:01.834Z,50.30
2017-07-15T08:53:30.846Z,50.60
2017-07-15T08:55:59.132Z,50.60
2017-07-15T08:58:27.384Z,50.30
2017-07-15T09:00:56.384Z,49.20
2017-07-15T09:03:24.651Z,49.20
2017-07-15T09:05:53.723Z,48.50
2017-07-15T09:08:21.970Z,48.50
2017-07-15T09:10:50.238Z,48.10
2017-07-15T09:13:18.506Z,47.80
2017-07-15T09:15:46.751Z,46.70
2017-07-15T09:18:14.986Z,45.40
2017-07-15T09:20:43.229Z,45.70
2017-07-15T09:23:11.465Z,45.70
2017-07-15T09:25:40.497Z,44.80
2017-07-15T09:28:08.998Z,44.80
2017-07-15T09:30:37.240Z,44.60
2017-07-15T09:33:05.474Z,45.00
2017-07-15T09:35:33.930Z,44.70
2017-07-15T09:38:02.260Z,44.30
2017-07-15T09:40:31.260Z,43.20
2017-07-15T09:42:59.564Z,43.20
2017-07-15T09:45:27.823Z,42.90
2017-07-15T09:47:56.078Z,43.00
2017-07-15T09:50:24.451Z,42.90
2017-07-15T09:52:53.460Z,43.30
2017-07-15T09:55:21.714Z,43.30
2017-07-15T09:57:49.978Z,44.10
2017-07-15T10:00:18.218Z,44.30
2017-07-15T10:02:46.522Z,44.70
2017-07-15T10:05:15.542Z,45.10
2017-07-15T10:07:43.827Z,45.00
2017-07-15T10:10:12.138Z,44.60
2017-07-15T10:12:40.434Z,45.00
2017-07-15T10:15:08.711Z,45.30
2017-07-15T10:17:36.995Z,45.80
2017-07-15T10:20:05.237Z,45.90
2017-07-15T10:22:33.493Z,46.10
2017-07-15T10:25:01.750Z,46.70
2017-07-15T10:27:30.038Z,46.90
2017-07-15T10:29:58.310Z,47.50
2017-07-15T10:32:27.339Z,47.30
2017-07-15T10:34:55.579Z,47.20
2017-07-15T10:37:23.842Z,47.20
2017-07-15T10:39:52.086Z,47.50
2017-07-15T10:42:20.330Z,47.00
2017-07-15T10:44:48.572Z,47.50
2017-07-15T10:47:16.825Z,46.60
2017-07-15T10:49:45.838Z,46.70
2017-07-15T10:52:14.100Z,46.10
2017-07-15T10:54:43.132Z,45.80
2017-07-15T10:57:11.481Z,45.70
2017-07-15T10:59:39.926Z,45.80
2017-07-15T11:02:08.172Z,45.40
2017-07-15T11:04:36.421Z,45.30
2017-07-15T11:07:04.674Z,44.30
2017-07-15T11:09:33.702Z,45.30
2017-07-15T11:12:01.953Z,45.30
2017-07-15T11:14:30.190Z,45.30
2017-07-15T11:16:58.459Z,45.60
2017-07-15T11:19:26.705Z,45.30
2017-07-15T11:21:54.953Z,45.40
2017-07-15T11:24:23.197Z,45.50
2017-07-15T11:26:51.480Z,47.40
2017-07-15T11:29:20.479Z,47.80
2017-07-15T11:31:49.490Z,47.80
2017-07-15T11:34:17.747Z,47.80
2017-07-15T11:36:46.741Z,48.20
2017-07-15T11:39:15.770Z,48.60
2017-07-15T11:41:44.009Z,48.60
2017-07-15T11:44:13.037Z,49.30
2017-07-15T11:46:41.282Z,49.30
2017-07-15T11:49:10.305Z,49.80
2017-07-15T11:51:38.581Z,49.70
2017-07-15T11:54:06.865Z,49.60
2017-07-15T11:56:35.153Z,49.10
2017-07-15T11:59:03.429Z,49.20
2017-07-15T12:01:31.663Z,48.50
2017-07-15T12:03:59.949Z,48.70
2017-07-15T12:06:28.211Z,48.70
2017-07-15T12:08:56.459Z,48.10
2017-07-15T12:11:25.477Z,48.00
2017-07-15T12:13:53.761Z,48.00
2017-07-15T12:16:21.995Z,48.30
2017-07-15T12:18:50.266Z,48.00
2017-07-15T12:21:18.489Z,47.90
2017-07-15T12:23:46.737Z,48.40
2017-07-15T12:26:15.766Z,47.60
2017-07-15T12:28:44.015Z,47.60
2017-07-15T12:31:12.251Z,47.40
2017-07-15T12:33:40.494Z,47.60
2017-07-15T12:36:08.743Z,48.60
2017-07-15T12:38:37.007Z,48.10
2017-07-15T12:41:06.015Z,47.80
2017-07-15T12:43:34.252Z,47.70
2017-07-15T12:46:02.505Z,47.20
2017-07-15T12:48:30.738Z,47.60
2017-07-15T12:50:58.994Z,47.30
2017-07-15T12:53:28.031Z,47.00
2017-07-15T12:55:56.334Z,47.00
2017-07-15T12:58:24.635Z,46.60
2017-07-15T13:00:52.876Z,45.70
2017-07-15T13:03:21.135Z,44.00
2017-07-15T13:05:49.376Z,43.50
2017-07-15T13:08:18.433Z,42.10
2017-07-15T13:10:46.677Z,42.00
2017-07-15T13:13:14.936Z,41.40
2017-07-15T13:15:43.191Z,42.30
2017-07-15T13:18:12.303Z,42.70
2017-07-15T13:20:41.420Z,42.60
2017-07-15T13:23:09.668Z,42.50
2017-07-15T13:25:38.479Z,42.40
2017-07-15T13:28:06.725Z,43.00
2017-07-15T13:30:34.982Z,43.00
2017-07-15T13:33:04.023Z,42.90
2017-07-15T13:35:32.301Z,42.90
2017-07-15T13:38:00.575Z,43.00
2017-07-15T13:40:28.857Z,42.10
2017-07-15T13:42:57.095Z,42.30
2017-07-15T13:45:25.371Z,43.00
2017-07-15T13:47:54.393Z,42.50
2017-07-15T13:50:22.654Z,42.50
2017-07-15T13:52:50.901Z,42.80
2017-07-15T13:55:19.151Z,43.20
2017-07-15T13:57:47.399Z,43.00
2017-07-15T14:00:15.689Z,42.40
2017-07-15T14:02:43.986Z,42.80
2017-07-15T14:05:12.223Z,43.10
2017-07-15T14:07:40.542Z,42.80
2017-07-15T14:10:08.776Z,42.80
2017-07-15T14:12:37.046Z,43.00
2017-07-15T14:15:05.278Z,43.20
2017-07-15T14:17:34.372Z,43.40
2017-07-15T14:20:02.595Z,43.40
2017-07-15T14:22:31.030Z,43.30
2017-07-15T14:24:59.262Z,43.40
2017-07-15T14:27:27.554Z,43.50
2017-07-15T14:29:55.794Z,43.80
2017-07-15T14:32:24.078Z,43.70
2017-07-15T14:34:52.338Z,43.20
2017-07-15T14:37:20.626Z,43.40
2017-07-15T14:39:48.904Z,43.00
2017-07-15T14:42:17.199Z,42.90
2017-07-15T14:44:45.551Z,42.90
2017-07-15T14:47:13.776Z,42.40
2017-07-15T14:49:43.059Z,43.00
2017-07-15T14:52:11.880Z,42.70
2017-07-15T14:54:40.496Z,42.40
2017-07-15T14:57:09.304Z,42.40
2017-07-15T14:59:37.870Z,42.40
2017-07-15T15:02:06.700Z,41.50
2017-07-15T15:04:35.409Z,42.40
2017-07-15T15:07:04.087Z,41.60
2017-07-15T15:09:32.803Z,41.60
2017-07-15T15:12:01.877Z,38.70
2017-07-15T15:14:30.128Z,38.70
2017-07-15T15:16:58.372Z,38.40
2017-07-15T15:19:26.641Z,35.90
2017-07-15T15:21:54.878Z,36.70
2017-07-15T15:24:23.142Z,37.20
2017-07-15T15:26:51.366Z,37.80
2017-07-15T15:29:19.619Z,36.70
2017-07-15T15:31:47.853Z,37.20
2017-07-15T15:34:16.181Z,36.90
2017-07-15T15:36:44.429Z,35.40
2017-07-15T15:39:12.719Z,35.60
2017-07-15T15:41:40.968Z,36.00
2017-07-15T15:44:09.977Z,36.20
2017-07-15T15:46:38.211Z,36.20
2017-07-15T15:49:06.506Z,36.60
2017-07-15T15:51:35.561Z,35.20
2017-07-15T15:54:03.808Z,35.20
2017-07-15T15:56:32.074Z,35.00
2017-07-15T15:59:00.325Z,35.30
2017-07-15T16:01:29.382Z,35.80
2017-07-15T16:03:57.661Z,35.80
2017-07-15T16:06:25.906Z,36.20
2017-07-15T16:08:54.170Z,35.40
2017-07-15T16:11:22.455Z,35.70
2017-07-15T16:13:50.696Z,36.30
2017-07-15T16:16:19.717Z,37.00
2017-07-15T16:18:47.966Z,37.00
2017-07-15T16:21:16.988Z,37.10
2017-07-15T16:23:45.267Z,37.00
2017-07-15T16:26:13.548Z,37.40
2017-07-15T16:28:41.786Z,37.70
2017-07-15T16:31:10.811Z,36.70
2017-07-15T16:33:39.057Z,36.70
2017-07-15T16:36:08.874Z,37.40
2017-07-15T16:38:37.217Z,37.40
2017-07-15T16:41:05.462Z,37.80
2017-07-15T16:43:33.694Z,37.30
2017-07-15T16:46:02.726Z,37.10
2017-07-15T16:48:30.973Z,37.10
2017-07-15T16:50:59.988Z,37.90
2017-07-15T16:53:28.257Z,37.90
2017-07-15T16:55:56.513Z,38.10
2017-07-15T16:58:25.521Z,37.70
2017-07-15T17:00:53.786Z,37.70
2017-07-15T17:03:22.795Z,38.00
2017-07-15T17:05:51.048Z,38.00
2017-07-15T17:08:19.287Z,37.30
2017-07-15T17:10:47.588Z,37.60
2017-07-15T17:13:16.589Z,38.40
2017-07-15T17:15:44.886Z,38.40
2017-07-15T17:18:13.128Z,38.20
2017-07-15T17:20:42.143Z,38.50
2017-07-15T17:23:10.377Z,37.90
2017-07-15T17:25:38.654Z,38.20
2017-07-15T17:28:06.900Z,36.40
2017-07-15T17:30:35.145Z,36.70
2017-07-15T17:33:03.434Z,36.90
2017-07-15T17:35:31.674Z,36.90
2017-07-15T17:38:00.698Z,37.80
2017-07-15T17:40:28.957Z,37.80
2017-07-15T17:42:57.209Z,38.40
2017-07-15T17:45:25.517Z,38.30
2017-07-15T17:47:54.505Z,37.80
2017-07-15T17:50:22.791Z,37.80
2017-07-15T17:52:51.137Z,37.90
2017-07-15T17:55:20.142Z,37.90
2017-07-15T17:57:48.396Z,37.90
2017-07-15T18:00:17.404Z,39.30
2017-07-15T18:02:46.450Z,39.10
2017-07-15T18:05:14.689Z,38.80
2017-07-15T18:07:42.958Z,38.20
2017-07-15T18:10:11.303Z,38.50
2017-07-15T18:12:39.540Z,38.40
2017-07-15T18:15:07.877Z,38.70
2017-07-15T18:17:36.136Z,38.30
2017-07-15T18:20:05.154Z,39.40
2017-07-15T18:22:33.410Z,39.30
2017-07-15T18:25:02.457Z,40.00
2017-07-15T18:27:30.718Z,40.00
2017-07-15T18:29:58.953Z,40.40
2017-07-15T18:32:28.001Z,40.40
2017-07-15T18:34:56.239Z,40.30
2017-07-15T18:37:24.528Z,41.00
2017-07-15T18:39:52.774Z,41.20
2017-07-15T18:42:21.783Z,40.80
2017-07-15T18:44:50.042Z,40.70
2017-07-15T18:47:19.038Z,41.70
2017-07-15T18:49:48.057Z,42.00
2017-07-15T18:52:16.286Z,42.00
2017-07-15T18:54:44.544Z,42.20
2017-07-15T18:57:12.786Z,42.90
2017-07-15T18:59:41.104Z,42.80
2017-07-15T19:02:09.337Z,43.20
2017-07-15T19:04:37.590Z,43.50
2017-07-15T19:07:05.839Z,43.80
2017-07-15T19:09:34.098Z,43.80
2017-07-15T19:12:02.335Z,43.80
2017-07-15T19:14:30.585Z,43.90
2017-07-15T19:16:59.591Z,44.00
2017-07-15T19:19:27.847Z,44.00
2017-07-15T19:21:56.885Z,44.50
2017-07-15T19:24:25.142Z,44.50
2017-07-15T19:26:53.378Z,44.40
2017-07-15T19:29:22.425Z,45.60
2017-07-15T19:31:50.669Z,45.00
2017-07-15T19:34:19.684Z,45.50
2017-07-15T19:36:47.922Z,45.50
2017-07-15T19:39:16.944Z,45.90
2017-07-15T19:41:45.180Z,45.50
2017-07-15T19:44:13.429Z,45.50
2017-07-15T19:46:41.690Z,45.60
2017-07-15T19:49:09.943Z,45.50
2017-07-15T19:51:38.219Z,45.60
2017-07-15T19:54:06.494Z,45.60
2017-07-15T19:56:34.767Z,46.20
2017-07-15T19:59:03.042Z,46.40
2017-07-15T20:01:31.301Z,46.90
2017-07-15T20:04:00.337Z,47.20
2017-07-15T20:06:28.594Z,47.20
2017-07-15T20:08:56.864Z,47.40
2017-07-15T20:11:25.111Z,48.20
2017-07-15T20:13:54.125Z,48.20
2017-07-15T20:16:22.379Z,48.70
2017-07-15T20:18:51.384Z,48.70
2017-07-15T20:21:20.402Z,49.00
2017-07-15T20:23:48.647Z,49.00
2017-07-15T20:26:16.927Z,49.10
2017-07-15T20:28:45.926Z,49.20
2017-07-15T20:31:14.182Z,49.20
2017-07-15T20:33:43.259Z,49.90
2017-07-15T20:36:29.241Z,49.80
2017-07-15T20:38:57.482Z,50.00
2017-07-15T20:41:25.735Z,50.30
2017-07-15T20:43:53.982Z,50.40
2017-07-15T20:46:22.285Z,50.60
2017-07-15T20:48:50.575Z,50.80
2017-07-15T20:51:19.589Z,50.90
2017-07-15T20:53:53.610Z,50.90
2017-07-15T20:56:21.960Z,50.80
2017-07-15T20:58:50.196Z,50.80
2017-07-15T21:01:19.225Z,50.50
2017-07-15T21:03:47.502Z,50.50
2017-07-15T21:06:15.774Z,50.30
2017-07-15T21:08:44.061Z,50.50
2017-07-15T21:11:12.290Z,50.60
2017-07-15T21:13:41.313Z,50.60
2017-07-15T21:16:09.545Z,50.60
2017-07-15T21:18:37.894Z,50.60
2017-07-15T21:21:06.143Z,50.70
2017-07-15T21:23:34.377Z,50.70
2017-07-15T21:26:02.654Z,50.90
2017-07-15T21:28:30.905Z,51.20
2017-07-15T21:30:59.147Z,51.40
2017-07-15T21:33:27.418Z,51.80
2017-07-15T21:35:55.645Z,51.80
2017-07-15T21:38:23.979Z,51.80
2017-07-15T21:40:52.223Z,51.90
2017-07-15T21:43:20.475Z,51.90
2017-07-15T21:45:48.705Z,52.00
2017-07-15T21:48:17.082Z,52.30
2017-07-15T21:50:45.320Z,52.40
2017-07-15T21:53:14.445Z,52.40
2017-07-15T21:55:42.687Z,52.40
2017-07-15T21:58:11.722Z,52.60
2017-07-15T22:00:39.971Z,52.60
2017-07-15T22:03:08.213Z,52.80
2017-07-15T22:05:36.547Z,53.00
2017-07-15T22:08:04.797Z,53.20
2017-07-15T22:10:33.033Z,53.20
2017-07-15T22:13:01.286Z,53.20
2017-07-15T22:15:29.531Z,53.60
2017-07-15T22:17:57.764Z,53.60
2017-07-15T22:20:26.009Z,53.70
2017-07-15T22:22:54.253Z,53.90
2017-07-15T22:25:22.510Z,54.00
2017-07-15T22:27:51.514Z,54.70
2017-07-15T22:30:19.771Z,54.10
2017-07-15T22:32:48.782Z,54.50
2017-07-15T22:35:17.786Z,54.40
2017-07-15T22:37:46.023Z,54.40
2017-07-15T22:40:15.044Z,54.20
2017-07-15T22:42:43.446Z,54.20
2017-07-15T22:45:11.759Z,54.50
2017-07-15T22:47:39.988Z,54.60
2017-07-15T22:50:08.233Z,54.60
2017-07-15T22:52:37.295Z,54.60
2017-07-15T22:55:05.648Z,54.70
2017-07-15T22:57:33.891Z,54.70
2017-07-15T23:00:02.151Z,54.70
2017-07-15T23:02:31.183Z,54.70
2017-07-15T23:04:59.454Z,54.70
2017-07-15T23:07:27.755Z,54.90
2017-07-15T23:09:56.005Z,55.00
2017-07-15T23:12:24.254Z,54.90
2017-07-15T23:14:52.583Z,55.00
2017-07-15T23:17:20.826Z,55.00
2017-07-15T23:19:49.084Z,54.90
2017-07-15T23:22:17.325Z,55.00
2017-07-15T23:24:45.643Z,55.10
2017-07-15T23:27:13.882Z,55.30
2017-07-15T23:29:42.138Z,55.40
2017-07-15T23:32:10.393Z,55.70
2017-07-15T23:34:38.713Z,56.00
2017-07-15T23:37:07.766Z,56.40
2017-07-15T23:39:36.012Z,56.40
2017-07-15T23:42:04.274Z,56.40
2017-07-15T23:44:33.319Z,56.30
2017-07-15T23:47:01.582Z,56.30
2017-07-15T23:49:29.825Z,56.30
2017-07-15T23:51:58.075Z,56.10
2017-07-15T23:54:27.140Z,56.80
2017-07-15T23:56:55.389Z,56.80
2017-07-15T23:59:23.621Z,56.80
